createdAt,value
2023-04-27T00:00:01.959Z,100238.85
2023-04-27T03:00:56.717Z,100279.84
2023-04-27T03:03:26.173Z,100279.76
2023-04-27T03:05:54.501Z,100285.16
2023-04-27T03:08:23.557Z,100286.96
2023-04-27T03:10:52.467Z,100285.67
2023-04-27T03:13:23.289Z,100287.02
2023-04-27T03:15:52.467Z,100292.30
2023-04-27T03:18:22.539Z,100295.11
2023-04-27T03:20:51.378Z,100296.39
2023-04-27T03:23:20.557Z,100301.22
2023-04-27T03:25:49.421Z,100299.30
2023-04-27T03:28:18.729Z,100303.52
2023-04-27T03:30:47.108Z,100303.34
2023-04-27T03:33:16.310Z,100303.67
2023-04-27T03:35:45.634Z,100307.17
2023-04-27T03:38:15.796Z,100306.71
2023-04-27T03:40:45.149Z,100312.64
2023-04-27T03:43:14.403Z,100314.23
2023-04-27T03:45:43.170Z,100314.23
2023-04-27T03:48:12.844Z,100318.60
2023-04-27T03:50:44.908Z,100321.28
2023-04-27T03:53:13.924Z,100317.83
2023-04-27T03:55:43.560Z,100319.40
2023-04-27T03:58:13.060Z,100321.05
2023-04-27T04:00:55.097Z,100320.25
2023-04-27T04:03:24.530Z,100321.98
2023-04-27T04:05:53.545Z,100324.81
2023-04-27T04:08:22.545Z,100325.08
2023-04-27T04:10:51.957Z,100325.13
2023-04-27T04:13:21.409Z,100326.88
2023-04-27T04:15:50.292Z,100331.52
2023-04-27T04:18:20.024Z,100330.89
2023-04-27T04:20:49.017Z,100329.21
2023-04-27T04:23:17.320Z,100329.23
2023-04-27T04:25:48.420Z,100331.21
2023-04-27T04:28:17.377Z,100331.68
2023-04-27T04:30:46.917Z,100331.21
2023-04-27T04:33:17.374Z,100332.31
2023-04-27T04:35:47.043Z,100337.52
2023-04-27T04:38:16.278Z,100336.58
2023-04-27T04:40:46.136Z,100339.31
2023-04-27T04:43:14.697Z,100337.05
2023-04-27T04:45:44.121Z,100339.08
2023-04-27T04:48:17.816Z,100337.89
2023-04-27T04:50:48.166Z,100332.93
2023-04-27T04:53:16.675Z,100335.41
2023-04-27T04:55:45.494Z,100336.09
2023-04-27T04:58:14.508Z,100340.95
2023-04-27T05:00:43.655Z,100341.41
2023-04-27T05:03:12.821Z,100343.36
2023-04-27T05:05:42.038Z,100344.06
2023-04-27T05:08:11.019Z,100344.67
2023-04-27T05:10:40.058Z,100347.70
2023-04-27T05:13:09.141Z,100350.30
2023-04-27T05:15:38.193Z,100352.84
2023-04-27T05:18:08.122Z,100355.34
2023-04-27T05:20:37.866Z,100359.62
2023-04-27T05:23:06.757Z,100360.80
2023-04-27T05:25:35.127Z,100356.02
2023-04-27T05:28:04.349Z,100358.71
2023-04-27T05:30:33.332Z,100360.89
2023-04-27T05:33:02.657Z,100364.45
2023-04-27T05:35:31.965Z,100365.39
2023-04-27T05:38:01.125Z,100367.70
2023-04-27T05:40:29.890Z,100371.09
2023-04-27T05:42:59.029Z,100372.20
2023-04-27T05:45:27.815Z,100370.15
2023-04-27T05:47:56.293Z,100367.96
2023-04-27T05:50:25.200Z,100364.90
2023-04-27T05:52:54.181Z,100369.69
2023-04-27T05:55:23.132Z,100366.07
2023-04-27T05:58:04.651Z,100365.63
2023-04-27T06:00:37.513Z,100359.30
2023-04-27T06:03:07.206Z,100362.16
2023-04-27T06:05:37.068Z,100360.66
2023-04-27T06:08:06.962Z,100370.67
2023-04-27T06:10:36.120Z,100368.30
2023-04-27T06:13:05.672Z,100370.02
2023-04-27T06:15:34.905Z,100374.73
2023-04-27T06:18:03.906Z,100383.15
2023-04-27T06:20:32.913Z,100381.33
2023-04-27T06:23:01.424Z,100385.40
2023-04-27T06:25:30.336Z,100386.65
2023-04-27T06:27:59.688Z,100384.17
2023-04-27T06:30:28.068Z,100386.48
2023-04-27T06:32:56.986Z,100387.29
2023-04-27T06:35:26.053Z,100381.17
2023-04-27T06:37:59.429Z,100386.98
2023-04-27T06:40:28.546Z,100387.39
2023-04-27T06:42:57.723Z,100389.70
2023-04-27T06:45:26.609Z,100385.05
2023-04-27T06:47:55.520Z,100385.14
2023-04-27T06:50:24.437Z,100385.95
2023-04-27T06:52:53.629Z,100386.45
2023-04-27T06:55:22.922Z,100385.32
2023-04-27T06:57:51.318Z,100387.14
2023-04-27T07:00:20.677Z,100386.40
2023-04-27T07:02:49.622Z,100386.19
2023-04-27T07:05:19.056Z,100385.89
2023-04-27T07:07:48.195Z,100387.79
2023-04-27T07:10:17.216Z,100389.33
2023-04-27T07:12:46.874Z,100392.00
2023-04-27T07:15:16.027Z,100385.94
2023-04-27T07:17:44.937Z,100391.74
2023-04-27T07:20:14.650Z,100390.14
2023-04-27T07:22:42.948Z,100392.52
2023-04-27T07:25:12.174Z,100389.15
2023-04-27T07:27:41.745Z,100393.36
2023-04-27T07:30:13.557Z,100391.33
2023-04-27T07:32:42.751Z,100393.13
2023-04-27T07:35:11.628Z,100393.17
2023-04-27T07:37:40.653Z,100394.67
2023-04-27T07:40:15.575Z,100398.08
2023-04-27T07:42:46.645Z,100400.09
2023-04-27T07:45:18.450Z,100399.37
2023-04-27T07:47:48.144Z,100398.58
2023-04-27T07:50:17.766Z,100398.45
2023-04-27T07:52:45.965Z,100397.48
2023-04-27T07:55:14.974Z,100398.52
2023-04-27T07:57:44.009Z,100399.62
2023-04-27T08:00:13.488Z,100393.59
2023-04-27T08:02:42.154Z,100394.61
2023-04-27T08:05:11.185Z,100394.69
2023-04-27T08:07:44.033Z,100394.88
2023-04-27T08:10:13.953Z,100396.23
2023-04-27T08:12:42.135Z,100396.56
2023-04-27T08:15:10.781Z,100402.56
2023-04-27T08:17:42.055Z,100405.32
2023-04-27T08:20:14.460Z,100406.65
2023-04-27T08:22:43.400Z,100405.75
2023-04-27T08:25:11.525Z,100402.95
2023-04-27T08:27:41.025Z,100407.94
2023-04-27T08:30:10.286Z,100408.36
2023-04-27T08:32:39.345Z,100406.92
2023-04-27T08:35:08.321Z,100402.88
2023-04-27T08:37:37.506Z,100402.52
2023-04-27T08:40:10.543Z,100408.02
2023-04-27T08:42:41.270Z,100405.27
2023-04-27T08:45:09.672Z,100406.92
2023-04-27T08:47:43.368Z,100404.95
2023-04-27T08:50:13.152Z,100400.58
2023-04-27T08:52:44.564Z,100401.80
2023-04-27T08:55:15.838Z,100405.89
2023-04-27T08:57:55.314Z,100404.71
2023-04-27T09:00:26.590Z,100407.48
2023-04-27T09:02:55.368Z,100407.88
2023-04-27T09:05:25.197Z,100411.25
2023-04-27T09:08:01.294Z,100413.09
2023-04-27T09:10:30.436Z,100414.73
2023-04-27T09:13:00.757Z,100411.46
2023-04-27T09:15:29.840Z,100407.17
2023-04-27T09:17:59.168Z,100401.13
2023-04-27T09:20:29.257Z,100399.86
2023-04-27T09:22:58.854Z,100399.23
2023-04-27T09:25:28.362Z,100397.69
2023-04-27T09:27:58.840Z,100400.66
2023-04-27T09:30:28.522Z,100394.44
2023-04-27T09:32:58.653Z,100394.55
2023-04-27T09:35:29.400Z,100398.41
2023-04-27T09:37:59.188Z,100399.24
2023-04-27T09:40:30.161Z,100400.84
2023-04-27T09:42:59.935Z,100404.58
2023-04-27T09:45:29.143Z,100402.98
2023-04-27T09:47:59.087Z,100403.77
2023-04-27T09:50:27.852Z,100404.98
2023-04-27T09:52:57.814Z,100402.58
2023-04-27T09:55:32.675Z,100397.29
2023-04-27T09:58:07.717Z,100395.80
2023-04-27T10:00:36.889Z,100401.29
2023-04-27T10:03:17.522Z,100402.31
2023-04-27T10:06:01.777Z,100400.70
2023-04-27T10:08:31.204Z,100405.27
2023-04-27T10:10:59.863Z,100402.50
2023-04-27T10:13:31.682Z,100406.11
2023-04-27T10:16:14.985Z,100408.10
2023-04-27T10:18:51.132Z,100403.14
2023-04-27T10:21:19.865Z,100406.81
2023-04-27T10:23:51.306Z,100402.11
2023-04-27T10:26:24.668Z,100403.94
2023-04-27T10:28:56.811Z,100403.73
2023-04-27T10:31:29.339Z,100405.20
2023-04-27T10:34:18.475Z,100402.48
2023-04-27T10:36:48.030Z,100401.14
2023-04-27T10:39:16.880Z,100398.15
2023-04-27T10:41:56.438Z,100400.17
2023-04-27T10:44:29.102Z,100396.89
2023-04-27T10:46:59.895Z,100397.54
2023-04-27T10:49:31.494Z,100395.79
2023-04-27T10:52:04.995Z,100392.20
2023-04-27T10:54:33.885Z,100384.53
2023-04-27T10:57:04.108Z,100384.27
2023-04-27T10:59:32.867Z,100386.79
2023-04-27T11:02:01.714Z,100389.55
2023-04-27T11:04:40.707Z,100386.41
2023-04-27T11:07:10.321Z,100398.23
2023-04-27T11:09:39.582Z,100399.83
2023-04-27T11:12:08.575Z,100404.39
2023-04-27T11:14:38.090Z,100404.58
2023-04-27T11:17:07.772Z,100401.22
2023-04-27T11:19:48.013Z,100397.86
2023-04-27T11:22:20.250Z,100396.71
2023-04-27T11:24:49.827Z,100399.29
2023-04-27T11:27:18.478Z,100400.87
2023-04-27T11:29:47.550Z,100405.16
2023-04-27T11:32:20.564Z,100407.61
2023-04-27T11:34:54.654Z,100409.08
2023-04-27T11:37:25.844Z,100409.42
2023-04-27T11:39:55.250Z,100414.77
2023-04-27T11:42:25.481Z,100415.05
2023-04-27T11:44:59.216Z,100414.16
2023-04-27T11:47:31.291Z,100415.75
2023-04-27T11:50:01.532Z,100418.39
2023-04-27T11:52:31.063Z,100420.33
2023-04-27T11:55:00.715Z,100421.70
2023-04-27T11:57:33.642Z,100423.20
2023-04-27T12:00:10.199Z,100424.95
2023-04-27T12:02:45.619Z,100428.05
2023-04-27T12:05:14.978Z,100428.83
2023-04-27T12:07:43.962Z,100427.56
2023-04-27T12:10:13.232Z,100425.89
2023-04-27T12:12:43.070Z,100424.94
2023-04-27T12:15:12.231Z,100426.63
2023-04-27T12:17:41.093Z,100426.34
2023-04-27T12:20:10.733Z,100423.49
2023-04-27T12:22:39.740Z,100421.85
2023-04-27T12:25:08.966Z,100424.50
2023-04-27T12:27:37.986Z,100427.29
2023-04-27T12:30:10.396Z,100429.98
2023-04-27T12:32:40.285Z,100431.83
2023-04-27T12:35:10.530Z,100435.02
2023-04-27T12:37:39.006Z,100435.98
2023-04-27T12:40:09.340Z,100439.32
2023-04-27T12:42:38.083Z,100440.80
2023-04-27T12:45:07.978Z,100435.74
2023-04-27T12:50:09.883Z,100443.73
2023-04-27T12:52:38.893Z,100441.85
2023-04-27T12:55:15.173Z,100440.63
2023-04-27T12:57:49.868Z,100442.04
2023-04-27T13:00:18.957Z,100435.57
2023-04-27T13:02:50.180Z,100436.39
2023-04-27T13:05:19.034Z,100440.31
2023-04-27T13:07:47.844Z,100438.03
2023-04-27T13:10:17.097Z,100442.95
2023-04-27T13:12:46.201Z,100440.48
2023-04-27T13:15:15.333Z,100443.41
2023-04-27T13:17:44.306Z,100443.88
2023-04-27T13:20:13.317Z,100446.51
2023-04-27T13:22:42.925Z,100448.13
2023-04-27T13:25:11.675Z,100448.77
2023-04-27T13:27:40.902Z,100446.11
2023-04-27T13:30:12.632Z,100448.39
2023-04-27T13:32:41.890Z,100444.42
2023-04-27T13:35:11.532Z,100449.68
2023-04-27T13:37:42.697Z,100449.31
2023-04-27T13:40:11.950Z,100457.23
2023-04-27T13:42:41.446Z,100452.09
2023-04-27T13:45:10.744Z,100452.32
2023-04-27T13:47:42.994Z,100452.89
2023-04-27T13:50:12.806Z,100458.92
2023-04-27T13:52:41.903Z,100461.38
2023-04-27T13:55:10.960Z,100458.94
2023-04-27T13:57:40.059Z,100462.52
2023-04-27T14:00:11.623Z,100462.77
2023-04-27T14:02:40.989Z,100459.87
2023-04-27T14:05:10.016Z,100460.17
2023-04-27T14:07:38.458Z,100458.62
2023-04-27T14:10:07.827Z,100457.21
2023-04-27T14:12:37.271Z,100455.05
2023-04-27T14:15:06.938Z,100456.14
2023-04-27T14:17:36.241Z,100459.20
2023-04-27T14:20:08.081Z,100456.02
2023-04-27T14:22:37.772Z,100459.23
2023-04-27T14:25:07.104Z,100458.61
2023-04-27T14:27:35.915Z,100453.10
2023-04-27T14:30:05.077Z,100456.95
2023-04-27T14:32:34.400Z,100464.92
2023-04-27T14:35:02.882Z,100457.47
2023-04-27T14:37:31.262Z,100461.69
2023-04-27T14:40:00.896Z,100465.17
2023-04-27T14:42:29.891Z,100468.56
2023-04-27T14:44:58.927Z,100470.05
2023-04-27T14:47:27.952Z,100471.63
2023-04-27T14:49:58.207Z,100471.59
2023-04-27T14:52:28.712Z,100475.27
2023-04-27T14:54:58.269Z,100473.70
2023-04-27T14:57:27.583Z,100478.48
2023-04-27T14:59:57.312Z,100475.22
2023-04-27T15:02:25.859Z,100477.59
2023-04-27T15:04:54.682Z,100479.73
2023-04-27T15:07:23.541Z,100478.13
2023-04-27T15:09:52.576Z,100476.52
2023-04-27T15:12:20.862Z,100479.20
2023-04-27T15:14:51.808Z,100480.09
2023-04-27T15:17:20.822Z,100476.98
2023-04-27T15:19:49.187Z,100480.63
2023-04-27T15:22:17.907Z,100480.43
2023-04-27T15:24:46.430Z,100485.08
2023-04-27T15:27:14.978Z,100490.94
2023-04-27T15:29:43.741Z,100492.38
2023-04-27T15:32:11.995Z,100492.55
2023-04-27T15:34:44.877Z,100493.08
2023-04-27T15:37:13.632Z,100498.09
2023-04-27T15:39:42.348Z,100500.02
2023-04-27T15:42:11.069Z,100501.88
2023-04-27T15:44:39.168Z,100508.40
2023-04-27T15:47:08.403Z,100515.02
2023-04-27T15:49:45.804Z,100513.04
2023-04-27T15:52:22.629Z,100513.52
2023-04-27T15:54:51.564Z,100517.80
2023-04-27T15:57:20.165Z,100519.92
2023-04-27T15:59:48.486Z,100524.32
2023-04-27T16:02:17.758Z,100524.13
2023-04-27T16:04:47.009Z,100527.83
2023-04-27T16:07:16.107Z,100530.27
2023-04-27T16:09:45.067Z,100527.08
2023-04-27T16:12:13.818Z,100527.41
2023-04-27T16:14:42.758Z,100528.02
2023-04-27T16:17:11.740Z,100528.16
2023-04-27T16:19:40.176Z,100528.54
2023-04-27T16:22:08.734Z,100532.14
2023-04-27T16:24:37.148Z,100532.88
2023-04-27T16:27:05.382Z,100534.16
2023-04-27T16:29:33.987Z,100533.74
2023-04-27T16:32:02.327Z,100543.66
2023-04-27T16:34:30.948Z,100539.20
2023-04-27T16:36:59.156Z,100537.60
2023-04-27T16:39:27.602Z,100542.52
2023-04-27T16:41:55.941Z,100544.79
2023-04-27T16:44:24.726Z,100541.81
2023-04-27T16:46:53.888Z,100540.73
2023-04-27T16:49:23.253Z,100541.36
2023-04-27T16:51:53.050Z,100539.21
2023-04-27T16:54:21.929Z,100545.48
2023-04-27T16:56:50.517Z,100550.11
2023-04-27T16:59:19.428Z,100554.11
2023-04-27T17:01:48.368Z,100551.62
2023-04-27T17:04:17.513Z,100553.25
2023-04-27T17:06:48.295Z,100555.46
2023-04-27T17:09:17.344Z,100557.36
2023-04-27T17:11:46.247Z,100558.10
2023-04-27T17:14:15.082Z,100557.13
2023-04-27T17:16:43.233Z,100558.23
2023-04-27T17:19:13.374Z,100556.32
2023-04-27T17:21:41.786Z,100557.98
2023-04-27T17:24:10.627Z,100557.83
2023-04-27T17:26:39.284Z,100555.06
2023-04-27T17:29:07.640Z,100553.92
2023-04-27T17:31:36.435Z,100556.88
2023-04-27T17:34:05.152Z,100559.23
2023-04-27T17:36:33.328Z,100556.55
2023-04-27T17:39:01.665Z,100554.89
2023-04-27T17:41:29.837Z,100558.56
2023-04-27T17:43:59.243Z,100555.93
2023-04-27T17:46:27.405Z,100558.38
2023-04-27T17:48:55.562Z,100557.25
2023-04-27T17:51:23.734Z,100559.67
2023-04-27T17:53:51.799Z,100559.08
2023-04-27T17:56:20.067Z,100559.27
2023-04-27T17:58:48.338Z,100561.34
2023-04-27T18:01:16.483Z,100564.02
2023-04-27T18:03:44.960Z,100565.09
2023-04-27T18:06:13.172Z,100569.92
2023-04-27T18:08:41.681Z,100571.36
2023-04-27T18:11:09.757Z,100575.15
2023-04-27T18:13:38.806Z,100577.71
2023-04-27T18:16:06.893Z,100580.25
2023-04-27T18:18:35.078Z,100581.73
2023-04-27T18:21:03.831Z,100586.48
2023-04-27T18:23:34.617Z,100588.52
2023-04-27T18:26:02.777Z,100594.27
2023-04-27T18:28:31.503Z,100593.52
2023-04-27T18:31:01.032Z,100594.52
2023-04-27T18:33:29.900Z,100597.10
2023-04-27T18:35:58.615Z,100600.06
2023-04-27T18:38:26.663Z,100600.45
2023-04-27T18:40:54.757Z,100605.56
2023-04-27T18:43:23.727Z,100606.36
2023-04-27T18:45:53.235Z,100609.66
2023-04-27T18:48:22.238Z,100606.29
2023-04-27T18:50:50.877Z,100613.11
2023-04-27T18:53:19.488Z,100612.36
2023-04-27T18:55:47.995Z,100608.67
2023-04-27T18:58:17.013Z,100610.88
2023-04-27T19:00:45.790Z,100616.56
2023-04-27T19:03:14.737Z,100619.91
2023-04-27T19:05:43.696Z,100620.45
2023-04-27T19:08:12.576Z,100624.16
2023-04-27T19:10:44.174Z,100626.61
2023-04-27T19:13:13.073Z,100628.89
2023-04-27T19:15:41.608Z,100626.61
2023-04-27T19:18:11.813Z,100629.96
2023-04-27T19:20:41.108Z,100630.95
2023-04-27T19:23:12.629Z,100631.33
2023-04-27T19:25:41.064Z,100632.16
2023-04-27T19:28:10.463Z,100629.42
2023-04-27T19:30:38.681Z,100629.66
2023-04-27T19:33:07.034Z,100628.35
2023-04-27T19:35:35.248Z,100631.24
2023-04-27T19:38:03.493Z,100629.05
2023-04-27T19:40:31.693Z,100630.25
2023-04-27T19:42:59.887Z,100632.36
2023-04-27T19:45:28.000Z,100631.12
2023-04-27T19:47:56.566Z,100630.35
2023-04-27T19:50:24.845Z,100629.16
2023-04-27T19:52:53.926Z,100627.70
2023-04-27T19:55:21.989Z,100630.13
2023-04-27T19:57:50.972Z,100632.55
2023-04-27T20:00:19.128Z,100635.49
2023-04-27T20:02:47.356Z,100640.05
2023-04-27T20:05:16.180Z,100640.06
2023-04-27T20:07:44.568Z,100637.58
2023-04-27T20:10:12.656Z,100642.02
2023-04-27T20:12:55.370Z,100641.76
2023-04-27T20:15:25.162Z,100644.58
2023-04-27T20:17:53.876Z,100645.54
2023-04-27T20:20:22.318Z,100651.45
2023-04-27T20:22:51.147Z,100650.40
2023-04-27T20:25:21.265Z,100656.95
2023-04-27T20:27:49.761Z,100653.55
2023-04-27T20:30:18.442Z,100655.89
2023-04-27T20:32:47.510Z,100656.98
2023-04-27T20:35:18.935Z,100655.48
2023-04-27T20:37:47.399Z,100657.39
2023-04-27T20:40:18.526Z,100654.61
2023-04-27T20:42:50.062Z,100659.36
2023-04-27T20:45:19.226Z,100661.52
2023-04-27T20:47:47.861Z,100661.61
2023-04-27T20:50:17.228Z,100665.58
2023-04-27T20:52:46.451Z,100665.02
2023-04-27T20:55:14.988Z,100667.30
2023-04-27T20:57:43.329Z,100667.54
2023-04-27T21:00:13.215Z,100670.22
2023-04-27T21:02:42.016Z,100670.20
2023-04-27T21:05:10.546Z,100671.59
2023-04-27T21:07:39.308Z,100671.11
2023-04-27T21:10:08.453Z,100669.97
2023-04-27T21:12:37.319Z,100671.38
2023-04-27T21:15:06.619Z,100670.58
2023-04-27T21:17:35.358Z,100669.88
2023-04-27T21:20:04.605Z,100671.41
2023-04-27T21:22:33.636Z,100674.66
2023-04-27T21:25:03.300Z,100672.28
2023-04-27T21:27:32.095Z,100678.63
2023-04-27T21:30:01.789Z,100679.02
2023-04-27T21:32:30.742Z,100679.57
2023-04-27T21:34:59.771Z,100682.48
2023-04-27T21:37:28.784Z,100682.92
2023-04-27T21:39:57.784Z,100683.85
2023-04-27T21:42:26.870Z,100687.16
2023-04-27T21:44:57.076Z,100686.83
2023-04-27T21:47:26.039Z,100691.21
2023-04-27T21:49:55.263Z,100694.98
2023-04-27T21:52:25.151Z,100699.90
2023-04-27T21:54:53.640Z,100700.64
2023-04-27T21:57:22.655Z,100703.36
2023-04-27T21:59:51.264Z,100705.00
2023-04-27T22:02:20.443Z,100702.94
2023-04-27T22:04:50.523Z,100704.00
2023-04-27T22:07:19.737Z,100703.48
2023-04-27T22:09:48.592Z,100704.25
2023-04-27T22:12:17.687Z,100702.33
2023-04-27T22:14:47.431Z,100700.95
2023-04-27T22:17:16.612Z,100698.48
2023-04-27T22:19:46.252Z,100699.05
2023-04-27T22:22:15.572Z,100699.74
2023-04-27T22:24:44.610Z,100703.74
2023-04-27T22:27:13.432Z,100701.92
2023-04-27T22:29:42.486Z,100703.77
2023-04-27T22:32:10.876Z,100703.71
2023-04-27T22:34:39.682Z,100706.75
2023-04-27T22:37:08.684Z,100706.85
2023-04-27T22:39:38.462Z,100706.88
2023-04-27T22:42:07.879Z,100708.98
2023-04-27T22:44:36.718Z,100712.19
2023-04-27T22:47:06.503Z,100713.33
2023-04-27T22:49:37.408Z,100713.91
2023-04-27T22:52:06.783Z,100713.27
2023-04-27T22:54:35.675Z,100715.23
2023-04-27T22:57:05.356Z,100715.02
2023-04-27T22:59:33.576Z,100716.09
2023-04-27T23:02:02.667Z,100713.23
2023-04-27T23:04:31.447Z,100714.64
2023-04-27T23:07:00.626Z,100709.89
2023-04-27T23:09:29.651Z,100712.31
2023-04-27T23:11:59.216Z,100709.31
2023-04-27T23:14:29.617Z,100709.71
2023-04-27T23:16:57.952Z,100710.39
2023-04-27T23:19:27.003Z,100710.66
2023-04-27T23:21:56.094Z,100706.70
2023-04-27T23:24:25.010Z,100706.45
2023-04-27T23:26:54.078Z,100711.08
2023-04-27T23:29:23.216Z,100710.55
2023-04-27T23:31:51.861Z,100714.62
2023-04-27T23:34:20.081Z,100716.67
2023-04-27T23:36:49.112Z,100710.26
2023-04-27T23:39:18.452Z,100716.67
2023-04-27T23:41:47.203Z,100716.65
2023-04-27T23:44:16.655Z,100710.94
2023-04-27T23:46:45.839Z,100715.23
2023-04-27T23:49:14.766Z,100716.20
2023-04-27T23:51:43.748Z,100719.11
2023-04-27T23:54:12.717Z,100716.23
2023-04-27T23:56:41.610Z,100713.33
2023-04-27T23:59:11.700Z,100713.67
